Howard City, MI (49329)

5:37 PM EST on February 13, 2016 (GMT -0500)
Ensley Center - Snow Farm | | Change Station
CLOSE
Current Station
Personal Weather Station
Location: Howard City, MI
Elevation: 982 ft
Nearby Weather Stations

Elev 982 ft 43.36 °N, 85.62 °W | Updated 6 minutes ago

Overcast
Overcast
11.3 °F
Feels Like 2 °F
N
5.8
Wind Variable Wind from North

Today
High -- | Low -- °F
--% Chance of Precip.
Yesterday
High -- | Low -- °F
Precip. -- in
Pressure 30.42 in
Visibility 10.0 miles
Clouds Mostly Cloudy 2800 ft
Overcast 3900 ft
Windchill 2 °F
Dew Point 4 °F
Humidity 73%
Rainfall 0.00 in
Snow Depth Not available.
7:43 AM 6:09 PM
Waxing Crescent, 35% visible
METAR KRQB 132215Z AUTO 34003KT 10SM BKN028 OVC039 M11/M16 A3042 RMK AO2 T11101165
Pressure 30.42 in
Visibility 10.0 miles
Clouds Mostly Cloudy 2800 ft
Overcast 3900 ft
Windchill 2 °F
Dew Point 4 °F
Humidity 73%
Rainfall 0.00 in
Snow Depth Not available.
7:43 AM 6:09 PM
Waxing Crescent, 35% visible
METAR KRQB 132215Z AUTO 34003KT 10SM BKN028 OVC039 M11/M16 A3042 RMK AO2 T11101165

10-Day Weather Forecast

Almanac

Astronomy

Feb. 13, 2016 Rise Set
Actual Time
Civil Twilight
Nautical Twilight
Astronomical Twilight
Moon
Length of Visible Light
Length of Day
Tomorrow will be .
, % of the Moon is Illuminated

Today's Extremes

State Highs State Lows

Community

WunderPhotos

Upload Photos

1,892,688 photos uploaded!

WunderBlog® & News

Nearby

Air Quality

  Air Quality AQ Index Pollutant
Not available.

Snow Depth

Station Depth Elevation

Earthquake Activity

City Distance Mag. Time & Date
Minimum magnitude displayed is 2.5.

Coastal Water Temperatures

Place Temperature

Stations

Nearby Weather Stations

Station Location Temp. Windchill Dew Point Humidity Wind Precip. Elev Updated Type
                   

Watches & Warnings

There are currently no watches in effect.